createdAt,value
2023-04-25T00:00:53.188Z,99287.55
2023-04-25T00:03:23.156Z,99289.41
2023-04-25T00:05:51.267Z,99288.07
2023-04-25T00:08:18.044Z,99290.88
2023-04-25T00:10:44.749Z,99293.27
2023-04-25T00:13:13.810Z,99293.09
2023-04-25T00:15:42.014Z,99296.86
2023-04-25T00:18:09.293Z,99298.20
2023-04-25T00:20:36.424Z,99297.13
2023-04-25T00:23:02.999Z,99297.06
2023-04-25T00:25:29.833Z,99297.58
2023-04-25T00:27:56.451Z,99295.61
2023-04-25T00:30:23.140Z,99293.71
2023-04-25T00:32:50.301Z,99289.97
2023-04-25T00:35:17.052Z,99292.39
2023-04-25T00:37:43.747Z,99290.70
2023-04-25T00:40:10.730Z,99291.99
2023-04-25T00:42:38.148Z,99288.40
2023-04-25T00:45:07.742Z,99288.41
2023-04-25T00:47:36.319Z,99288.73
2023-04-25T00:50:03.590Z,99291.35
2023-04-25T00:52:30.374Z,99290.42
2023-04-25T00:54:57.168Z,99291.25
2023-04-25T00:57:23.924Z,99291.27
2023-04-25T00:59:52.741Z,99297.52
2023-04-25T01:02:21.033Z,99296.62
2023-04-25T01:04:49.088Z,99294.70
2023-04-25T01:07:16.680Z,99292.34
2023-04-25T01:09:43.328Z,99291.38
2023-04-25T01:12:10.124Z,99290.77
2023-04-25T01:14:36.948Z,99295.55
2023-04-25T01:17:08.294Z,99298.82
2023-04-25T01:19:36.152Z,99299.03
2023-04-25T01:22:04.198Z,99301.40
2023-04-25T01:24:33.885Z,99300.20
2023-04-25T01:27:02.561Z,99295.95
2023-04-25T01:29:29.594Z,99295.94
2023-04-25T01:31:57.184Z,99294.40
2023-04-25T01:34:23.889Z,99291.66
2023-04-25T01:36:51.008Z,99291.46
2023-04-25T01:39:18.393Z,99287.68
2023-04-25T01:41:48.577Z,99290.79
2023-04-25T01:44:15.898Z,99290.23
2023-04-25T01:46:42.653Z,99290.77
2023-04-25T01:49:09.351Z,99290.41
2023-04-25T01:51:36.037Z,99290.41
2023-04-25T01:54:02.764Z,99294.31
2023-04-25T01:56:33.889Z,99296.80
2023-04-25T01:59:01.116Z,99297.62
2023-04-25T02:01:56.114Z,99295.16
2023-04-25T02:04:25.599Z,99298.82
2023-04-25T02:06:52.234Z,99298.08
2023-04-25T02:09:19.224Z,99298.95
2023-04-25T02:11:50.776Z,99294.40
2023-04-25T02:14:25.693Z,99292.56
2023-04-25T02:17:02.473Z,99287.45
2023-04-25T02:19:30.750Z,99290.38
2023-04-25T02:21:57.473Z,99285.96
2023-04-25T02:24:24.075Z,99270.77
2023-04-25T02:26:51.010Z,99280.85
2023-04-25T02:29:17.512Z,99278.51
2023-04-25T02:31:44.202Z,99277.46
2023-04-25T02:34:11.070Z,99273.02
2023-04-25T02:36:38.906Z,99273.06
2023-04-25T02:39:05.411Z,99270.41
2023-04-25T02:41:32.256Z,99263.52
2023-04-25T02:43:58.786Z,99267.33
2023-04-25T02:46:37.883Z,99266.36
2023-04-25T02:49:06.866Z,99264.77
2023-04-25T02:51:34.370Z,99269.48
2023-04-25T02:54:00.869Z,99267.52
2023-04-25T02:56:27.967Z,99270.88
2023-04-25T02:58:54.921Z,99275.84
2023-04-25T03:01:21.935Z,99274.36
2023-04-25T03:03:48.941Z,99272.05
2023-04-25T03:06:16.419Z,99270.83
2023-04-25T03:08:43.287Z,99271.44
2023-04-25T03:11:11.351Z,99270.11
2023-04-25T03:13:37.918Z,99266.29
2023-04-25T03:16:05.118Z,99271.23
2023-04-25T03:18:32.138Z,99269.16
2023-04-25T03:20:59.068Z,99272.88
2023-04-25T03:23:26.442Z,99274.83
2023-04-25T03:25:53.251Z,99277.73
2023-04-25T03:28:20.340Z,99277.08
2023-04-25T03:30:46.975Z,99279.13
2023-04-25T03:33:13.647Z,99279.41
2023-04-25T03:35:40.154Z,99284.91
2023-04-25T03:38:07.199Z,99285.88
2023-04-25T03:40:39.116Z,99288.66
2023-04-25T03:43:17.337Z,99291.60
2023-04-25T03:45:49.587Z,99292.85
2023-04-25T03:48:16.917Z,99297.52
2023-04-25T03:50:43.424Z,99297.42
2023-04-25T03:53:10.687Z,99302.30
2023-04-25T03:55:57.191Z,99307.30
2023-04-25T03:58:24.914Z,99312.60
2023-04-25T04:00:51.554Z,99305.70
2023-04-25T04:03:18.227Z,99315.08
2023-04-25T04:05:45.597Z,99320.34
2023-04-25T04:08:12.497Z,99326.08
2023-04-25T04:10:40.002Z,99321.06
2023-04-25T04:13:06.953Z,99314.38
2023-04-25T04:15:33.672Z,99310.77
2023-04-25T04:18:03.161Z,99319.19
2023-04-25T04:20:31.102Z,99323.56
2023-04-25T04:22:58.065Z,99328.20
2023-04-25T04:25:24.994Z,99327.88
2023-04-25T04:28:18.270Z,99332.39
2023-04-25T04:30:56.053Z,99334.89
2023-04-25T04:33:24.062Z,99339.38
2023-04-25T04:35:56.181Z,99340.73
2023-04-25T04:38:22.831Z,99342.04
2023-04-25T04:40:50.848Z,99347.82
2023-04-25T04:43:37.780Z,99347.95
2023-04-25T04:46:07.352Z,99344.85
2023-04-25T04:48:44.907Z,99346.52
2023-04-25T04:51:35.987Z,99334.69
2023-04-25T04:54:31.858Z,99335.24
2023-04-25T04:57:12.886Z,99338.95
2023-04-25T04:59:57.992Z,99331.83
2023-04-25T05:02:43.737Z,99349.56
2023-04-25T05:05:29.162Z,99355.98
2023-04-25T05:08:11.020Z,99356.75
2023-04-25T05:10:55.172Z,99362.41
2023-04-25T05:13:54.498Z,99359.96
2023-04-25T05:16:44.466Z,99358.85
2023-04-25T05:19:22.228Z,99351.62
2023-04-25T05:22:12.559Z,99347.55
2023-04-25T05:25:01.223Z,99350.90
2023-04-25T05:27:37.156Z,99349.34
2023-04-25T05:30:16.267Z,99348.14
2023-04-25T05:33:19.097Z,99346.23
2023-04-25T05:35:46.404Z,99347.73
2023-04-25T05:38:13.062Z,99350.85
2023-04-25T05:41:12.337Z,99348.94
2023-04-25T05:43:47.470Z,99352.21
2023-04-25T05:46:40.497Z,99342.31
2023-04-25T05:49:16.410Z,99360.14
2023-04-25T05:52:02.724Z,99358.63
2023-04-25T05:54:48.188Z,99325.05
2023-04-25T05:57:23.558Z,99356.92
2023-04-25T05:59:50.563Z,99356.92
2023-04-25T06:02:18.789Z,99358.23
2023-04-25T06:04:45.866Z,99365.48
2023-04-25T06:07:13.507Z,99365.83
2023-04-25T06:09:40.354Z,99369.95
2023-04-25T06:12:10.068Z,99378.80
2023-04-25T06:14:36.717Z,99387.48
2023-04-25T06:17:08.858Z,99396.85
2023-04-25T06:19:37.050Z,99405.40
2023-04-25T06:22:04.366Z,99410.43
2023-04-25T06:24:31.496Z,99413.83
2023-04-25T06:26:58.686Z,99408.89
2023-04-25T06:29:25.315Z,99411.90
2023-04-25T06:31:53.193Z,99410.85
2023-04-25T06:34:21.031Z,99418.27
2023-04-25T06:36:47.636Z,99419.49
2023-04-25T06:39:15.634Z,99418.28
2023-04-25T06:41:42.660Z,99420.33
2023-04-25T06:44:15.783Z,99424.42
2023-04-25T06:46:51.435Z,99426.22
2023-04-25T06:49:19.053Z,99424.23
2023-04-25T06:51:45.704Z,99425.50
2023-04-25T06:54:12.577Z,99419.13
2023-04-25T06:56:44.711Z,99420.02
2023-04-25T06:59:14.748Z,99418.04
2023-04-25T07:01:42.808Z,99422.26
2023-04-25T07:04:16.517Z,99421.63
2023-04-25T07:06:48.800Z,99419.01
2023-04-25T07:09:17.143Z,99418.97
2023-04-25T07:11:46.005Z,99416.96
2023-04-25T07:14:12.500Z,99418.86
2023-04-25T07:16:39.989Z,99420.09
2023-04-25T07:19:06.544Z,99421.34
2023-04-25T07:21:33.254Z,99420.73
2023-04-25T07:24:01.438Z,99422.38
2023-04-25T07:26:31.843Z,99424.23
2023-04-25T07:29:17.583Z,99424.88
2023-04-25T07:31:44.314Z,99429.73
2023-04-25T07:34:10.816Z,99431.77
2023-04-25T07:36:38.952Z,99438.88
2023-04-25T07:39:05.662Z,99438.48
2023-04-25T07:41:32.778Z,99438.60
2023-04-25T07:43:59.615Z,99440.16
2023-04-25T07:46:26.317Z,99440.48
2023-04-25T07:48:53.192Z,99424.93
2023-04-25T07:51:20.584Z,99441.39
2023-04-25T07:53:48.331Z,99442.98
2023-04-25T07:56:16.729Z,99438.95
2023-04-25T07:58:45.447Z,99441.42
2023-04-25T08:01:13.722Z,99428.70
2023-04-25T08:04:07.223Z,99438.58
2023-04-25T08:06:55.713Z,99433.85
2023-04-25T08:09:29.839Z,99434.10
2023-04-25T08:11:56.534Z,99425.14
2023-04-25T08:14:26.920Z,99440.58
2023-04-25T08:16:53.980Z,99436.64
2023-04-25T08:19:20.851Z,99443.14
2023-04-25T08:21:47.811Z,99442.52
2023-04-25T08:24:18.912Z,99439.39
2023-04-25T08:26:46.784Z,99441.20
2023-04-25T08:29:15.900Z,99442.94
2023-04-25T08:31:43.524Z,99442.66
2023-04-25T08:34:10.313Z,99448.88
2023-04-25T08:36:49.386Z,99449.23
2023-04-25T08:39:39.481Z,99451.10
2023-04-25T08:42:33.350Z,99457.95
2023-04-25T08:45:03.624Z,99456.29
2023-04-25T08:47:35.372Z,99441.41
2023-04-25T08:50:04.449Z,99442.48
2023-04-25T08:52:38.015Z,99464.67
2023-04-25T08:55:07.361Z,99469.02
2023-04-25T08:57:34.893Z,99468.05
2023-04-25T09:00:03.485Z,99468.58
2023-04-25T09:02:31.527Z,99474.23
2023-04-25T09:04:58.689Z,99474.58
2023-04-25T09:07:26.271Z,99478.03
2023-04-25T09:09:54.981Z,99476.96
2023-04-25T09:12:24.016Z,99482.89
2023-04-25T09:15:11.977Z,99483.46
2023-04-25T09:18:04.304Z,99486.31
2023-04-25T09:23:25.054Z,99484.73
2023-04-25T09:25:55.167Z,99485.05
2023-04-25T09:28:28.454Z,99487.04
2023-04-25T09:30:58.235Z,99489.36
2023-04-25T09:33:37.203Z,99487.72
2023-04-25T09:36:08.496Z,99496.09
2023-04-25T09:38:50.624Z,99468.53
2023-04-25T09:41:30.967Z,99504.01
2023-04-25T09:44:01.764Z,99481.86
2023-04-25T09:46:54.648Z,99506.91
2023-04-25T09:49:26.708Z,99511.77
2023-04-25T09:52:14.636Z,99515.80
2023-04-25T09:55:03.846Z,99518.14
2023-04-25T09:57:33.589Z,99522.34
2023-04-25T10:00:05.278Z,99522.69
2023-04-25T10:02:53.307Z,99525.09
2023-04-25T10:05:45.926Z,99526.02
2023-04-25T10:08:14.145Z,99530.67
2023-04-25T10:10:42.085Z,99531.34
2023-04-25T10:13:12.036Z,99531.83
2023-04-25T10:15:40.393Z,99525.92
2023-04-25T10:18:07.693Z,99529.98
2023-04-25T10:20:34.228Z,99529.36
2023-04-25T10:23:13.575Z,99529.28
2023-04-25T10:25:41.842Z,99527.66
2023-04-25T10:28:11.301Z,99526.77
2023-04-25T10:30:38.101Z,99527.88
2023-04-25T10:33:18.621Z,99528.42
2023-04-25T10:35:45.901Z,99522.67
2023-04-25T10:38:15.301Z,99524.82
2023-04-25T10:40:42.097Z,99525.27
2023-04-25T10:43:36.020Z,99523.85
2023-04-25T10:46:26.241Z,99524.70
2023-04-25T10:48:59.143Z,99521.79
2023-04-25T10:51:43.324Z,99521.94
2023-04-25T10:54:13.915Z,99520.40
2023-04-25T10:56:44.801Z,99520.83
2023-04-25T10:59:12.674Z,99493.60
2023-04-25T11:01:45.232Z,99523.34
2023-04-25T11:04:36.248Z,99525.93
2023-04-25T11:07:08.613Z,99526.34
2023-04-25T11:09:39.712Z,99528.75
2023-04-25T11:12:08.800Z,99525.10
2023-04-25T11:14:36.833Z,99527.14
2023-04-25T11:17:03.827Z,99526.33
2023-04-25T11:19:30.769Z,99524.90
2023-04-25T11:22:02.286Z,99521.30
2023-04-25T11:24:30.334Z,99521.80
2023-04-25T11:26:59.299Z,99527.58
2023-04-25T11:29:28.325Z,99526.79
2023-04-25T11:31:59.391Z,99524.15
2023-04-25T11:34:26.735Z,99524.73
2023-04-25T11:36:57.345Z,99524.52
2023-04-25T11:39:26.312Z,99525.60
2023-04-25T11:42:01.840Z,99524.76
2023-04-25T11:44:32.571Z,99505.39
2023-04-25T11:46:59.566Z,99527.14
2023-04-25T11:49:32.450Z,99530.53
2023-04-25T11:52:01.515Z,99534.89
2023-04-25T11:54:28.263Z,99532.44
2023-04-25T11:56:55.518Z,99532.09
2023-04-25T11:59:26.049Z,99529.95
2023-04-25T12:01:53.589Z,99528.95
2023-04-25T12:04:30.487Z,99529.05
2023-04-25T12:06:57.629Z,99526.09
2023-04-25T12:09:33.195Z,99521.33
2023-04-25T12:12:04.751Z,99526.70
2023-04-25T12:14:46.657Z,99526.65
2023-04-25T12:17:17.358Z,99528.93
2023-04-25T12:19:44.733Z,99524.06
2023-04-25T12:22:25.458Z,99522.09
2023-04-25T12:24:54.240Z,99522.93
2023-04-25T12:27:28.105Z,99525.86
2023-04-25T12:29:57.112Z,99524.98
2023-04-25T12:32:25.131Z,99526.63
2023-04-25T12:34:52.217Z,99527.42
2023-04-25T12:37:18.858Z,99525.24
2023-04-25T12:39:45.731Z,99526.03
2023-04-25T12:42:14.552Z,99521.75
2023-04-25T12:44:41.479Z,99521.57
2023-04-25T12:47:08.326Z,99524.02
2023-04-25T12:49:35.412Z,99523.67
2023-04-25T12:52:02.081Z,99523.11
2023-04-25T12:54:28.725Z,99522.27
2023-04-25T12:56:55.846Z,99520.40
2023-04-25T12:59:22.760Z,99521.71
2023-04-25T13:01:49.656Z,99523.27
2023-04-25T13:04:17.096Z,99518.14
2023-04-25T13:06:48.093Z,99517.65
2023-04-25T13:09:21.343Z,99519.48
2023-04-25T13:11:48.243Z,99515.48
2023-04-25T13:14:15.704Z,99510.99
2023-04-25T13:16:42.847Z,99510.83
2023-04-25T13:19:11.841Z,99509.69
2023-04-25T13:21:44.108Z,99505.53
2023-04-25T13:24:10.727Z,99506.20
2023-04-25T13:26:37.412Z,99506.29
2023-04-25T13:29:07.078Z,99504.52
2023-04-25T13:31:35.667Z,99455.13
2023-04-25T13:34:02.281Z,99501.33
2023-04-25T13:36:29.485Z,99497.38
2023-04-25T13:38:56.234Z,99497.40
2023-04-25T13:41:36.720Z,99500.78
2023-04-25T13:44:12.883Z,99499.66
2023-04-25T13:46:47.098Z,99498.58
2023-04-25T13:49:14.977Z,99495.07
2023-04-25T13:51:47.106Z,99493.06
2023-04-25T13:54:17.038Z,99494.21
2023-04-25T13:56:47.761Z,99495.52
2023-04-25T13:59:28.509Z,99498.40
2023-04-25T14:01:55.936Z,99498.66
2023-04-25T14:04:26.999Z,99500.81
2023-04-25T14:06:53.717Z,99499.14
2023-04-25T14:09:25.392Z,99501.73
2023-04-25T14:11:55.649Z,99503.85
2023-04-25T14:14:25.579Z,99504.67
2023-04-25T14:16:55.125Z,99504.70
2023-04-25T14:19:25.739Z,99507.15
2023-04-25T14:21:54.496Z,99511.08
2023-04-25T14:24:21.496Z,99508.85
2023-04-25T14:26:48.645Z,99509.13
2023-04-25T14:29:15.651Z,99507.70
2023-04-25T14:31:47.416Z,99508.36
2023-04-25T14:34:17.273Z,99513.46
2023-04-25T14:36:51.870Z,99511.70
2023-04-25T14:39:21.765Z,99515.92
2023-04-25T14:41:50.895Z,99517.39
2023-04-25T14:44:20.932Z,99516.31
2023-04-25T14:46:52.061Z,99518.64
2023-04-25T14:49:22.184Z,99517.70
2023-04-25T14:51:51.340Z,99519.06
2023-04-25T14:54:18.606Z,99519.43
2023-04-25T14:56:45.137Z,99518.84
2023-04-25T14:59:18.456Z,99518.38
2023-04-25T15:01:48.574Z,99469.28
2023-04-25T15:04:18.483Z,99525.02
2023-04-25T15:06:46.389Z,99525.94
2023-04-25T15:09:13.603Z,99529.05
2023-04-25T15:11:40.283Z,99530.27
2023-04-25T15:14:06.832Z,99529.30
2023-04-25T15:16:36.665Z,99531.19
2023-04-25T15:19:07.470Z,99534.23
2023-04-25T15:21:39.518Z,99501.38
2023-04-25T15:24:06.816Z,99536.36
2023-04-25T15:26:33.384Z,99537.95
2023-04-25T15:29:06.925Z,99538.20
2023-04-25T15:31:50.007Z,99537.61
2023-04-25T15:34:41.964Z,99536.98
2023-04-25T15:37:20.081Z,99542.31
2023-04-25T15:40:28.303Z,99543.73
2023-04-25T15:43:20.539Z,99550.99
2023-04-25T15:45:59.509Z,99557.89
2023-04-25T15:48:43.049Z,99555.20
2023-04-25T15:51:21.604Z,99556.80
2023-04-25T15:53:54.885Z,99555.35
2023-04-25T15:56:30.045Z,99552.67
2023-04-25T15:59:03.735Z,99505.50
2023-04-25T16:01:34.677Z,99558.42
2023-04-25T16:04:01.511Z,99559.04
2023-04-25T16:06:28.556Z,99561.73
2023-04-25T16:08:56.747Z,99561.04
2023-04-25T16:11:23.975Z,99560.75
2023-04-25T16:13:59.144Z,99559.27
2023-04-25T16:16:36.977Z,99561.90
2023-04-25T16:19:04.990Z,99567.23
2023-04-25T16:21:32.072Z,99568.79
2023-04-25T16:24:02.019Z,99571.52
2023-04-25T16:26:34.595Z,99569.39
2023-04-25T16:29:06.729Z,99574.46
2023-04-25T16:31:34.975Z,99573.86
2023-04-25T16:34:02.609Z,99578.22
2023-04-25T16:36:31.764Z,99578.30
2023-04-25T16:39:00.891Z,99578.59
2023-04-25T16:41:31.512Z,99582.34
2023-04-25T16:44:09.352Z,99583.60
2023-04-25T16:46:37.531Z,99568.45
2023-04-25T16:49:08.861Z,99583.86
2023-04-25T16:51:36.199Z,99563.05
2023-04-25T16:54:06.383Z,99586.66
2023-04-25T16:56:37.390Z,99583.65
2023-04-25T16:59:06.218Z,99582.48
2023-04-25T17:01:33.017Z,99589.34
2023-04-25T17:04:00.573Z,99588.10
2023-04-25T17:06:29.324Z,99590.89
2023-04-25T17:08:59.432Z,99595.70
2023-04-25T17:11:27.423Z,99598.31
2023-04-25T17:13:54.711Z,99596.15
2023-04-25T17:16:22.575Z,99597.98
2023-04-25T17:18:50.642Z,99600.77
2023-04-25T17:21:17.746Z,99606.38
2023-04-25T17:23:45.067Z,99603.60
2023-04-25T17:26:13.408Z,99613.59
2023-04-25T17:28:41.521Z,99612.64
2023-04-25T17:31:09.011Z,99614.68
2023-04-25T17:33:38.814Z,99616.16
2023-04-25T17:36:06.613Z,99615.52
2023-04-25T17:38:35.073Z,99618.64
2023-04-25T17:41:02.372Z,99618.02
2023-04-25T17:43:29.227Z,99623.79
2023-04-25T17:45:56.305Z,99618.83
2023-04-25T17:48:23.185Z,99622.95
2023-04-25T17:50:50.480Z,99623.98
2023-04-25T17:53:17.372Z,99625.48
2023-04-25T17:55:44.462Z,99631.08
2023-04-25T17:58:11.079Z,99629.90
2023-04-25T18:00:38.974Z,99630.60
2023-04-25T18:03:06.322Z,99632.98
2023-04-25T18:05:33.112Z,99638.52
2023-04-25T18:08:00.198Z,99641.81
2023-04-25T18:10:27.332Z,99651.55
2023-04-25T18:12:56.895Z,99651.43
2023-04-25T18:15:24.501Z,99657.65
2023-04-25T18:17:51.508Z,99666.14
2023-04-25T18:20:19.056Z,99667.27
2023-04-25T18:22:46.309Z,99670.80
2023-04-25T18:25:15.224Z,99672.72
2023-04-25T18:27:42.015Z,99675.91
2023-04-25T18:30:13.153Z,99675.77
2023-04-25T18:32:40.066Z,99677.92
2023-04-25T18:35:09.465Z,99680.59
2023-04-25T18:37:36.671Z,99681.39
2023-04-25T18:40:06.565Z,99684.56
2023-04-25T18:42:33.224Z,99684.02
2023-04-25T18:44:59.754Z,99654.43
2023-04-25T18:47:27.474Z,99690.02
2023-04-25T18:49:53.977Z,99693.94
2023-04-25T18:52:20.752Z,99695.94
2023-04-25T18:54:47.629Z,99698.67
2023-04-25T18:57:15.566Z,99699.18
2023-04-25T18:59:45.633Z,99703.36
2023-04-25T19:02:15.458Z,99704.36
2023-04-25T19:04:43.185Z,99703.62
2023-04-25T19:07:12.269Z,99705.05
2023-04-25T19:09:38.967Z,99702.35
2023-04-25T19:12:06.009Z,99705.40
2023-04-25T19:14:33.022Z,99707.20
2023-04-25T19:17:00.461Z,99708.14
2023-04-25T19:19:27.635Z,99712.55
2023-04-25T19:21:54.358Z,99710.50
2023-04-25T19:24:22.354Z,99717.75
2023-04-25T19:26:49.415Z,99715.02
2023-04-25T19:29:16.538Z,99718.94
2023-04-25T19:31:47.798Z,99717.20
2023-04-25T19:34:18.139Z,99721.52
2023-04-25T19:36:48.258Z,99713.77
2023-04-25T19:39:15.247Z,99716.05
2023-04-25T19:41:42.018Z,99720.48
2023-04-25T19:44:08.904Z,99705.39
2023-04-25T19:46:37.648Z,99721.09
2023-04-25T19:49:08.288Z,99716.67
2023-04-25T19:51:35.777Z,99713.98
2023-04-25T19:54:02.688Z,99715.70
2023-04-25T19:56:29.956Z,99717.42
2023-04-25T19:58:58.114Z,99715.40
2023-04-25T20:01:27.564Z,99715.21
2023-04-25T20:03:54.617Z,99713.84
2023-04-25T20:06:21.583Z,99717.94
2023-04-25T20:08:52.264Z,99718.48
2023-04-25T20:11:19.358Z,99719.41
2023-04-25T20:13:45.900Z,99723.96
2023-04-25T20:16:13.182Z,99721.65
2023-04-25T20:18:40.911Z,99724.09
2023-04-25T20:21:07.979Z,99721.14
2023-04-25T20:23:35.221Z,99726.09
2023-04-25T20:26:02.003Z,99726.38
2023-04-25T20:28:28.818Z,99724.09
2023-04-25T20:30:55.616Z,99726.41
2023-04-25T20:33:22.503Z,99723.29
2023-04-25T20:35:49.154Z,99723.30
2023-04-25T20:38:17.323Z,99724.24
2023-04-25T20:40:44.043Z,99726.52
2023-04-25T20:43:11.976Z,99723.86
2023-04-25T20:45:39.308Z,99726.21
2023-04-25T20:48:05.887Z,99730.54
2023-04-25T20:50:33.417Z,99728.19
2023-04-25T20:53:00.529Z,99733.26
2023-04-25T20:55:27.094Z,99737.98
2023-04-25T20:57:54.334Z,99738.52
2023-04-25T21:00:26.997Z,99737.40
2023-04-25T21:02:55.998Z,99734.72
2023-04-25T21:05:23.331Z,99736.05
2023-04-25T21:07:54.019Z,99741.39
2023-04-25T21:10:20.760Z,99740.73
2023-04-25T21:12:48.827Z,99738.09
2023-04-25T21:15:19.719Z,99734.56
2023-04-25T21:17:47.518Z,99733.52
2023-04-25T21:20:17.097Z,99726.55
2023-04-25T21:22:49.320Z,99729.91
2023-04-25T21:25:20.075Z,99727.07
2023-04-25T21:27:48.756Z,99722.46
2023-04-25T21:30:23.113Z,99727.58
2023-04-25T21:32:51.320Z,99725.67
2023-04-25T21:35:19.720Z,99736.41
2023-04-25T21:37:46.847Z,99733.24
2023-04-25T21:40:14.072Z,99732.83
2023-04-25T21:42:42.004Z,99739.36
2023-04-25T21:45:09.600Z,99736.14
2023-04-25T21:47:36.606Z,99736.93
2023-04-25T21:50:04.322Z,99740.36
2023-04-25T21:52:31.808Z,99738.66
2023-04-25T21:54:58.465Z,99737.69
2023-04-25T21:57:25.021Z,99740.52
2023-04-25T21:59:51.961Z,99739.86
2023-04-25T22:02:18.765Z,99738.26
2023-04-25T22:04:48.748Z,99742.75
2023-04-25T22:07:16.117Z,99745.50
2023-04-25T22:09:53.790Z,99743.77
2023-04-25T22:12:22.377Z,99749.50
2023-04-25T22:14:49.491Z,99748.59
2023-04-25T22:17:17.113Z,99752.76
2023-04-25T22:19:44.163Z,99752.16
2023-04-25T22:22:10.841Z,99756.42
2023-04-25T22:24:38.132Z,99756.16
2023-04-25T22:27:05.288Z,99752.02
2023-04-25T22:29:32.208Z,99752.88
2023-04-25T22:31:58.861Z,99756.21
2023-04-25T22:34:25.901Z,99758.70
2023-04-25T22:36:52.658Z,99762.60
2023-04-25T22:39:19.130Z,99761.98
2023-04-25T22:41:47.088Z,99762.27
2023-04-25T22:44:14.741Z,99765.34
2023-04-25T22:46:44.376Z,99766.58
2023-04-25T22:49:11.445Z,99760.29
2023-04-25T22:51:40.456Z,99766.81
2023-04-25T22:54:07.134Z,99759.97
2023-04-25T22:56:35.103Z,99776.25
2023-04-25T22:59:01.555Z,99775.41
2023-04-25T23:01:28.504Z,99771.10
2023-04-25T23:03:55.323Z,99771.06
2023-04-25T23:06:22.218Z,99772.81
2023-04-25T23:08:49.022Z,99771.39
2023-04-25T23:11:15.670Z,99773.38
2023-04-25T23:13:42.591Z,99776.84
2023-04-25T23:16:11.990Z,99778.69
2023-04-25T23:18:40.007Z,99763.14
2023-04-25T23:21:08.560Z,99783.92
2023-04-25T23:23:35.814Z,99783.95
2023-04-25T23:26:11.949Z,99780.38
2023-04-25T23:28:41.210Z,99781.19
2023-04-25T23:31:09.974Z,99778.05
2023-04-25T23:33:36.972Z,99783.13
2023-04-25T23:36:04.047Z,99783.38
2023-04-25T23:38:31.533Z,99787.10
2023-04-25T23:40:58.152Z,99787.56
2023-04-25T23:43:24.756Z,99796.79
2023-04-25T23:45:51.882Z,99801.48
2023-04-25T23:48:18.479Z,99802.20
2023-04-25T23:50:44.951Z,99810.64
2023-04-25T23:53:11.518Z,99809.65
2023-04-25T23:55:38.440Z,99816.94
2023-04-25T23:58:05.094Z,99811.17
